Flight Track Log - Related Links

Times and Time Zones

All times are in EDT time to prevent confusion due to time zone crossing. See the N775NC flight status page for this flight to view local times or setup timezone preferences in your user account.

Time Position Orientation Groundspeed Altitude Reporting Facility
EDT Latitude Longitude Course Direction KTS MPH feet Rate Location/Type
Sun 09:06:57 AM 33.6333 -84.4500 178° South 162 186 2,300  Level Atlanta TRACON
Sun 09:07:32 AM 33.6203 -84.4928 250° West 438 504 2,900 2,063 Climbing Atlanta Center
Sun 09:08:33 AM 33.5803 -84.5625 235° Southwest 306 352 5,600 2,650 Climbing Atlanta Center
Sun 09:09:00 AM 33.3220 -84.4201 180° South  Level Estimated
Sun 09:09:32 AM 33.5464 -84.6369 241° Southwest 263 303 8,200  Level Atlanta Center
Sun 09:10:00 AM 33.2170 -84.4176 178° South  Level Estimated
Sun 09:10:33 AM 33.4878 -84.6814 212° Southwest 269 310 9,900  Level Atlanta Center
Sun 09:11:00 AM 33.1121 -84.4142 178° South  Level FlightAware Approximate
Sun 09:11:32 AM 33.3878 -84.6633 171° South 304 350 10,000  Level Atlanta Center
Sun 09:12:00 AM 33.0073 -84.4109 178° South  Level FlightAware Approximate
Sun 09:12:33 AM 33.2836 -84.6428 171° South 367 422 11,600  Level Atlanta Center
Sun 09:13:32 AM 33.1772 -84.6219 171° South 394 453 14,600 2,975 Climbing Atlanta Center
Sun 09:14:32 AM 33.0728 -84.5967 169° South 387 445 17,500 2,331 Climbing Atlanta Center
Sun 09:15:33 AM 32.9581 -84.5761 171° South 387 445 19,300 1,850 Climbing Atlanta Center
Sun 09:16:32 AM 32.8497 -84.5506 169° South 394 453 21,200 1,462 Climbing Atlanta Center
Sun 09:17:32 AM 32.7497 -84.5231 167° South 400 460 22,200 950 Climbing Atlanta Center
Sun 09:18:32 AM 32.6286 -84.4975 170° South 417 480 23,100 400 Climbing Atlanta Center
Sun 09:19:32 AM 32.5056 -84.4700 169° South 437 503 23,000 -36 Descending Atlanta Center
Sun 09:21:18 AM 32.2889 -84.4261 170° South 444 511 23,000  Level Jacksonville Center
Sun 09:22:18 AM 32.1617 -84.4019 171° South 449 517 23,000  Level Jacksonville Center
Sun 09:23:18 AM 32.0367 -84.3850 173° South 455 524 23,000  Level Jacksonville Center
Sun 09:24:18 AM 31.9117 -84.3708 175° South 455 524 23,000  Level Jacksonville Center
Sun 09:25:18 AM 31.7864 -84.3714 180° South 455 524 23,000 -250 Level Jacksonville Center
Sun 09:26:18 AM 31.6608 -84.3889 187° South 455 524 22,500 -650 Descending Jacksonville Center
Sun 09:27:18 AM 31.5375 -84.4039 186° South 460 529 21,700 -1,600 Descending Jacksonville Center
Sun 09:28:18 AM 31.4183 -84.4142 184° South 453 521 19,300 -2,800 Descending Jacksonville Center
Sun 09:29:18 AM 31.3033 -84.4172 181° South 435 501 16,100 -3,250 Descending Jacksonville Center
Sun 09:30:18 AM 31.1928 -84.4203 181° South 413 475 12,800 -2,550 Descending Jacksonville Center
Sun 09:31:18 AM 31.0883 -84.4136 177° South 395 455 11,000 -900 Descending Jacksonville Center
Sun 09:32:18 AM 30.9925 -84.4025 174° South 368 423 11,000 -450 Level Jacksonville Center
Sun 09:33:18 AM 30.9092 -84.3961 176° South 333 383 10,100 -1,500 Descending Jacksonville Center
Sun 09:34:18 AM 30.8319 -84.3903 176° South 302 348 8,000 -2,000 Descending Jacksonville Center
Sun 09:35:18 AM 30.7528 -84.3817 175° South 290 334 6,100 -1,500 Descending Jacksonville Center
Sun 09:36:18 AM 30.6778 -84.3442 157° South 290 334 5,000 -1,000 Descending Jacksonville Center
Sun 09:37:18 AM 30.6114 -84.3119 157° South 279 321 4,100 -900 Descending Jacksonville Center
Sun 09:38:18 AM 30.5367 -84.2722 155° Southeast 274 315 3,200 -850 Descending Jacksonville Center
Sun 09:39:18 AM 30.4703 -84.2397 157° South 269 310 2,400 -800 Descending Jacksonville Center

Login

Don't have an account? Register now (free) for customized features, flight alerts, and more!